sensor_id;sensor_type;location;lat;lon;timestamp;temperature;humidity
56542;DHT22;42438;53.174;6.730;2023-02-15T00:01:38;1.10;99.90
56542;DHT22;42438;53.174;6.730;2023-02-15T00:04:09;1.30;99.90
56542;DHT22;42438;53.174;6.730;2023-02-15T00:06:40;1.40;99.90
56542;DHT22;42438;53.174;6.730;2023-02-15T00:11:42;1.30;99.90
56542;DHT22;42438;53.174;6.730;2023-02-15T00:14:17;1.40;99.90
56542;DHT22;42438;53.174;6.730;2023-02-15T00:16:49;2.20;99.90
56542;DHT22;42438;53.174;6.730;2023-02-15T00:19:21;0.40;99.90
56542;DHT22;42438;53.174;6.730;2023-02-15T00:21:51;1.00;99.90
56542;DHT22;42438;53.174;6.730;2023-02-15T00:24:22;0.80;99.90
56542;DHT22;42438;53.174;6.730;2023-02-15T00:26:53;0.90;99.90
56542;DHT22;42438;53.174;6.730;2023-02-15T00:29:24;0.50;99.90
56542;DHT22;42438;53.174;6.730;2023-02-15T00:31:54;0.60;99.90
56542;DHT22;42438;53.174;6.730;2023-02-15T00:34:26;0.80;99.90
56542;DHT22;42438;53.174;6.730;2023-02-15T00:36:57;0.80;99.90
56542;DHT22;42438;53.174;6.730;2023-02-15T00:39:28;1.10;99.90
56542;DHT22;42438;53.174;6.730;2023-02-15T00:41:59;1.60;99.90
56542;DHT22;42438;53.174;6.730;2023-02-15T00:44:30;2.20;99.90
56542;DHT22;42438;53.174;6.730;2023-02-15T00:47:00;1.00;99.90
56542;DHT22;42438;53.174;6.730;2023-02-15T00:49:31;0.90;99.90
56542;DHT22;42438;53.174;6.730;2023-02-15T00:52:01;1.00;99.90
56542;DHT22;42438;53.174;6.730;2023-02-15T00:54:32;1.00;99.90
56542;DHT22;42438;53.174;6.730;2023-02-15T00:57:04;0.80;99.90
56542;DHT22;42438;53.174;6.730;2023-02-15T00:59:35;2.10;99.90
56542;DHT22;42438;53.174;6.730;2023-02-15T01:02:06;1.00;99.90
56542;DHT22;42438;53.174;6.730;2023-02-15T01:04:36;2.00;99.90
56542;DHT22;42438;53.174;6.730;2023-02-15T01:07:07;1.40;99.90
56542;DHT22;42438;53.174;6.730;2023-02-15T01:09:38;1.00;99.90
56542;DHT22;42438;53.174;6.730;2023-02-15T01:12:08;1.30;99.90
56542;DHT22;42438;53.174;6.730;2023-02-15T01:14:39;0.90;99.90
56542;DHT22;42438;53.174;6.730;2023-02-15T01:17:09;1.10;99.90
56542;DHT22;42438;53.174;6.730;2023-02-15T01:19:40;1.10;99.90
56542;DHT22;42438;53.174;6.730;2023-02-15T01:22:11;1.50;99.90
56542;DHT22;42438;53.174;6.730;2023-02-15T01:24:41;1.40;99.90
56542;DHT22;42438;53.174;6.730;2023-02-15T01:27:12;1.20;99.90
56542;DHT22;42438;53.174;6.730;2023-02-15T01:29:43;1.90;99.90
56542;DHT22;42438;53.174;6.730;2023-02-15T01:32:14;0.90;99.90
56542;DHT22;42438;53.174;6.730;2023-02-15T01:34:44;0.50;99.90
56542;DHT22;42438;53.174;6.730;2023-02-15T01:37:15;0.80;99.90
56542;DHT22;42438;53.174;6.730;2023-02-15T01:39:45;0.60;99.90
56542;DHT22;42438;53.174;6.730;2023-02-15T01:42:21;2.20;99.90
56542;DHT22;42438;53.174;6.730;2023-02-15T01:44:59;0.80;99.90
56542;DHT22;42438;53.174;6.730;2023-02-15T01:52:52;0.70;99.90
56542;DHT22;42438;53.174;6.730;2023-02-15T01:55:27;0.60;99.90
56542;DHT22;42438;53.174;6.730;2023-02-15T02:00:31;0.50;99.90
56542;DHT22;42438;53.174;6.730;2023-02-15T02:03:03;0.90;99.90
56542;DHT22;42438;53.174;6.730;2023-02-15T02:05:34;0.70;99.90
56542;DHT22;42438;53.174;6.730;2023-02-15T02:08:05;0.90;99.90
56542;DHT22;42438;53.174;6.730;2023-02-15T02:10:36;0.60;99.90
56542;DHT22;42438;53.174;6.730;2023-02-15T02:13:10;0.60;99.90
56542;DHT22;42438;53.174;6.730;2023-02-15T02:15:51;1.10;99.90
56542;DHT22;42438;53.174;6.730;2023-02-15T02:23:57;0.70;99.90
56542;DHT22;42438;53.174;6.730;2023-02-15T02:29:53;0.60;99.90
56542;DHT22;42438;53.174;6.730;2023-02-15T02:35:27;0.70;99.90
56542;DHT22;42438;53.174;6.730;2023-02-15T02:38:28;0.50;99.90
56542;DHT22;42438;53.174;6.730;2023-02-15T02:43:59;0.40;99.90
56542;DHT22;42438;53.174;6.730;2023-02-15T02:46:37;0.50;99.90
56542;DHT22;42438;53.174;6.730;2023-02-15T02:49:09;0.50;99.90
56542;DHT22;42438;53.174;6.730;2023-02-15T02:51:39;0.40;99.90
56542;DHT22;42438;53.174;6.730;2023-02-15T02:54:10;0.40;99.90
56542;DHT22;42438;53.174;6.730;2023-02-15T02:56:43;0.40;99.90
56542;DHT22;42438;53.174;6.730;2023-02-15T02:59:20;0.60;99.90
56542;DHT22;42438;53.174;6.730;2023-02-15T03:01:58;0.40;99.90
56542;DHT22;42438;53.174;6.730;2023-02-15T03:04:35;0.50;99.90
56542;DHT22;42438;53.174;6.730;2023-02-15T03:07:12;0.40;99.90
56542;DHT22;42438;53.174;6.730;2023-02-15T03:09:49;0.40;99.90
56542;DHT22;42438;53.174;6.730;2023-02-15T03:12:33;0.20;99.90
56542;DHT22;42438;53.174;6.730;2023-02-15T03:15:12;0.10;99.90
56542;DHT22;42438;53.174;6.730;2023-02-15T03:17:48;0.00;99.90
56542;DHT22;42438;53.174;6.730;2023-02-15T03:20:28;0.00;99.90
56542;DHT22;42438;53.174;6.730;2023-02-15T03:23:04;0.00;99.90
56542;DHT22;42438;53.174;6.730;2023-02-15T03:25:40;-0.10;99.90
56542;DHT22;42438;53.174;6.730;2023-02-15T03:28:42;0.10;99.90
56542;DHT22;42438;53.174;6.730;2023-02-15T03:31:15;0.00;99.90
56542;DHT22;42438;53.174;6.730;2023-02-15T03:34:00;-0.20;99.90
56542;DHT22;42438;53.174;6.730;2023-02-15T03:39:33;0.00;99.90
56542;DHT22;42438;53.174;6.730;2023-02-15T03:42:26;0.00;99.90
56542;DHT22;42438;53.174;6.730;2023-02-15T03:45:08;0.50;99.90
56542;DHT22;42438;53.174;6.730;2023-02-15T03:47:44;0.00;99.90
56542;DHT22;42438;53.174;6.730;2023-02-15T03:50:22;0.10;99.90
56542;DHT22;42438;53.174;6.730;2023-02-15T03:53:16;0.20;99.90
56542;DHT22;42438;53.174;6.730;2023-02-15T03:55:49;1.00;99.90
56542;DHT22;42438;53.174;6.730;2023-02-15T03:58:21;0.10;99.90
56542;DHT22;42438;53.174;6.730;2023-02-15T04:04:21;-0.10;99.90
56542;DHT22;42438;53.174;6.730;2023-02-15T04:06:52;0.00;99.90
56542;DHT22;42438;53.174;6.730;2023-02-15T04:09:23;-0.10;99.90
56542;DHT22;42438;53.174;6.730;2023-02-15T04:12:12;0.50;99.90
56542;DHT22;42438;53.174;6.730;2023-02-15T04:14:43;0.00;99.90
56542;DHT22;42438;53.174;6.730;2023-02-15T04:17:32;0.10;99.90
56542;DHT22;42438;53.174;6.730;2023-02-15T04:20:03;-0.20;99.90
56542;DHT22;42438;53.174;6.730;2023-02-15T04:22:53;-0.30;99.90
56542;DHT22;42438;53.174;6.730;2023-02-15T04:25:42;-0.40;99.90
56542;DHT22;42438;53.174;6.730;2023-02-15T04:28:13;-0.40;99.90
56542;DHT22;42438;53.174;6.730;2023-02-15T04:30:43;-0.10;99.90
56542;DHT22;42438;53.174;6.730;2023-02-15T04:33:14;-0.30;99.90
56542;DHT22;42438;53.174;6.730;2023-02-15T04:35:44;0.00;99.90
56542;DHT22;42438;53.174;6.730;2023-02-15T04:38:15;-0.30;99.90
56542;DHT22;42438;53.174;6.730;2023-02-15T04:40:50;-0.20;99.90
56542;DHT22;42438;53.174;6.730;2023-02-15T04:43:21;-0.30;99.90
56542;DHT22;42438;53.174;6.730;2023-02-15T04:45:52;-0.20;99.90
56542;DHT22;42438;53.174;6.730;2023-02-15T04:48:23;0.00;99.90
56542;DHT22;42438;53.174;6.730;2023-02-15T04:50:53;0.00;99.90
56542;DHT22;42438;53.174;6.730;2023-02-15T04:53:24;0.20;99.90
56542;DHT22;42438;53.174;6.730;2023-02-15T04:55:55;0.30;99.90
56542;DHT22;42438;53.174;6.730;2023-02-15T04:58:25;0.30;99.90
56542;DHT22;42438;53.174;6.730;2023-02-15T05:00:56;0.30;99.90
56542;DHT22;42438;53.174;6.730;2023-02-15T05:03:27;0.50;99.90
56542;DHT22;42438;53.174;6.730;2023-02-15T05:05:58;0.40;99.90
56542;DHT22;42438;53.174;6.730;2023-02-15T05:08:28;0.30;99.90
56542;DHT22;42438;53.174;6.730;2023-02-15T05:10:59;0.60;99.90
56542;DHT22;42438;53.174;6.730;2023-02-15T05:13:30;0.30;99.90
56542;DHT22;42438;53.174;6.730;2023-02-15T05:16:00;0.50;99.90
56542;DHT22;42438;53.174;6.730;2023-02-15T05:18:31;0.50;99.90
56542;DHT22;42438;53.174;6.730;2023-02-15T05:21:02;0.40;99.90
56542;DHT22;42438;53.174;6.730;2023-02-15T05:23:33;0.50;99.90
56542;DHT22;42438;53.174;6.730;2023-02-15T05:26:03;0.30;99.90
56542;DHT22;42438;53.174;6.730;2023-02-15T05:28:53;0.60;99.90
56542;DHT22;42438;53.174;6.730;2023-02-15T05:31:23;0.40;99.90
56542;DHT22;42438;53.174;6.730;2023-02-15T05:33:54;0.50;99.90
56542;DHT22;42438;53.174;6.730;2023-02-15T05:36:25;0.40;99.90
56542;DHT22;42438;53.174;6.730;2023-02-15T05:38:55;0.40;99.90
56542;DHT22;42438;53.174;6.730;2023-02-15T05:41:26;0.50;99.90
56542;DHT22;42438;53.174;6.730;2023-02-15T05:43:57;0.50;99.90
56542;DHT22;42438;53.174;6.730;2023-02-15T05:46:27;0.30;99.90
56542;DHT22;42438;53.174;6.730;2023-02-15T05:48:58;0.50;99.90
56542;DHT22;42438;53.174;6.730;2023-02-15T05:51:28;0.30;99.90
56542;DHT22;42438;53.174;6.730;2023-02-15T05:53:59;0.30;99.90
56542;DHT22;42438;53.174;6.730;2023-02-15T05:56:30;0.60;99.90
56542;DHT22;42438;53.174;6.730;2023-02-15T05:59:01;0.50;99.90
56542;DHT22;42438;53.174;6.730;2023-02-15T06:01:31;1.40;99.90
56542;DHT22;42438;53.174;6.730;2023-02-15T06:04:02;0.60;99.90
56542;DHT22;42438;53.174;6.730;2023-02-15T06:06:33;0.30;99.90
56542;DHT22;42438;53.174;6.730;2023-02-15T06:09:04;0.40;99.90
56542;DHT22;42438;53.174;6.730;2023-02-15T06:11:35;0.40;99.90
56542;DHT22;42438;53.174;6.730;2023-02-15T06:14:06;0.40;99.90
56542;DHT22;42438;53.174;6.730;2023-02-15T06:16:36;0.50;99.90
56542;DHT22;42438;53.174;6.730;2023-02-15T06:19:07;0.30;99.90
56542;DHT22;42438;53.174;6.730;2023-02-15T06:21:37;0.60;99.90
56542;DHT22;42438;53.174;6.730;2023-02-15T06:24:09;0.60;99.90
56542;DHT22;42438;53.174;6.730;2023-02-15T06:26:40;0.30;99.90
56542;DHT22;42438;53.174;6.730;2023-02-15T06:29:10;0.60;99.90
56542;DHT22;42438;53.174;6.730;2023-02-15T06:31:41;0.40;99.90
56542;DHT22;42438;53.174;6.730;2023-02-15T06:34:12;0.30;99.90
56542;DHT22;42438;53.174;6.730;2023-02-15T06:36:43;0.40;99.90
56542;DHT22;42438;53.174;6.730;2023-02-15T06:39:13;0.40;99.90
56542;DHT22;42438;53.174;6.730;2023-02-15T06:41:44;0.40;99.90
56542;DHT22;42438;53.174;6.730;2023-02-15T06:44:14;0.50;99.90
56542;DHT22;42438;53.174;6.730;2023-02-15T06:46:45;0.50;99.90
56542;DHT22;42438;53.174;6.730;2023-02-15T06:49:16;0.20;99.90
56542;DHT22;42438;53.174;6.730;2023-02-15T06:51:46;0.50;99.90
56542;DHT22;42438;53.174;6.730;2023-02-15T06:54:17;0.20;99.90
56542;DHT22;42438;53.174;6.730;2023-02-15T06:56:48;0.20;99.90
56542;DHT22;42438;53.174;6.730;2023-02-15T06:59:19;0.50;99.90
56542;DHT22;42438;53.174;6.730;2023-02-15T07:01:49;0.50;99.90
56542;DHT22;42438;53.174;6.730;2023-02-15T07:04:20;0.40;99.90
56542;DHT22;42438;53.174;6.730;2023-02-15T07:06:51;0.40;99.90
56542;DHT22;42438;53.174;6.730;2023-02-15T07:09:22;0.20;99.90
56542;DHT22;42438;53.174;6.730;2023-02-15T07:11:52;0.20;99.90
56542;DHT22;42438;53.174;6.730;2023-02-15T07:14:42;0.50;99.90
56542;DHT22;42438;53.174;6.730;2023-02-15T07:17:12;0.30;99.90
56542;DHT22;42438;53.174;6.730;2023-02-15T07:19:43;0.50;99.90
56542;DHT22;42438;53.174;6.730;2023-02-15T07:22:14;0.60;99.90
56542;DHT22;42438;53.174;6.730;2023-02-15T07:24:44;0.60;99.90
56542;DHT22;42438;53.174;6.730;2023-02-15T07:27:15;0.40;99.90
56542;DHT22;42438;53.174;6.730;2023-02-15T07:29:46;0.50;99.90
56542;DHT22;42438;53.174;6.730;2023-02-15T07:32:17;0.60;99.90
56542;DHT22;42438;53.174;6.730;2023-02-15T07:34:47;0.70;99.90
56542;DHT22;42438;53.174;6.730;2023-02-15T07:37:18;0.60;99.90
56542;DHT22;42438;53.174;6.730;2023-02-15T07:39:48;1.60;99.90
56542;DHT22;42438;53.174;6.730;2023-02-15T07:42:19;0.60;99.90
56542;DHT22;42438;53.174;6.730;2023-02-15T07:44:51;0.60;99.90
56542;DHT22;42438;53.174;6.730;2023-02-15T07:47:22;0.60;99.90
56542;DHT22;42438;53.174;6.730;2023-02-15T07:49:53;0.70;99.90
56542;DHT22;42438;53.174;6.730;2023-02-15T07:52:25;0.90;99.90
56542;DHT22;42438;53.174;6.730;2023-02-15T07:54:56;0.80;99.90
56542;DHT22;42438;53.174;6.730;2023-02-15T07:57:26;0.90;99.90
56542;DHT22;42438;53.174;6.730;2023-02-15T07:59:57;1.00;99.90
56542;DHT22;42438;53.174;6.730;2023-02-15T08:02:27;0.90;99.90
56542;DHT22;42438;53.174;6.730;2023-02-15T08:04:59;1.10;99.90
56542;DHT22;42438;53.174;6.730;2023-02-15T08:07:29;1.00;99.90
56542;DHT22;42438;53.174;6.730;2023-02-15T08:10:00;1.20;99.90
56542;DHT22;42438;53.174;6.730;2023-02-15T08:12:31;1.50;99.90
56542;DHT22;42438;53.174;6.730;2023-02-15T08:15:01;1.40;99.90
56542;DHT22;42438;53.174;6.730;2023-02-15T08:17:36;1.60;99.90
56542;DHT22;42438;53.174;6.730;2023-02-15T08:20:07;1.60;99.90
56542;DHT22;42438;53.174;6.730;2023-02-15T08:22:38;1.70;99.90
56542;DHT22;42438;53.174;6.730;2023-02-15T08:25:09;1.60;99.90
56542;DHT22;42438;53.174;6.730;2023-02-15T08:27:40;1.80;99.90
56542;DHT22;42438;53.174;6.730;2023-02-15T08:30:11;1.90;99.90
56542;DHT22;42438;53.174;6.730;2023-02-15T08:32:42;2.00;99.90
56542;DHT22;42438;53.174;6.730;2023-02-15T08:35:13;2.10;99.90
56542;DHT22;42438;53.174;6.730;2023-02-15T08:37:43;1.80;99.90
56542;DHT22;42438;53.174;6.730;2023-02-15T08:40:15;1.90;99.90
56542;DHT22;42438;53.174;6.730;2023-02-15T08:42:46;2.20;99.90
56542;DHT22;42438;53.174;6.730;2023-02-15T08:45:17;2.00;99.90
56542;DHT22;42438;53.174;6.730;2023-02-15T08:47:47;2.30;99.90
56542;DHT22;42438;53.174;6.730;2023-02-15T08:50:18;2.40;99.90
56542;DHT22;42438;53.174;6.730;2023-02-15T08:52:48;2.20;99.90
56542;DHT22;42438;53.174;6.730;2023-02-15T08:55:19;2.20;99.90
56542;DHT22;42438;53.174;6.730;2023-02-15T08:57:50;2.60;99.90
56542;DHT22;42438;53.174;6.730;2023-02-15T09:00:21;2.40;99.90
56542;DHT22;42438;53.174;6.730;2023-02-15T09:02:52;2.50;99.90
56542;DHT22;42438;53.174;6.730;2023-02-15T09:05:23;2.50;99.90
56542;DHT22;42438;53.174;6.730;2023-02-15T09:07:54;2.60;99.90
56542;DHT22;42438;53.174;6.730;2023-02-15T09:10:25;3.00;99.90
56542;DHT22;42438;53.174;6.730;2023-02-15T09:12:55;2.90;99.90
56542;DHT22;42438;53.174;6.730;2023-02-15T09:15:26;2.90;99.90
56542;DHT22;42438;53.174;6.730;2023-02-15T09:17:57;3.30;99.90
56542;DHT22;42438;53.174;6.730;2023-02-15T09:20:35;3.40;99.90
56542;DHT22;42438;53.174;6.730;2023-02-15T09:23:05;3.10;99.90
56542;DHT22;42438;53.174;6.730;2023-02-15T09:25:36;3.20;99.90
56542;DHT22;42438;53.174;6.730;2023-02-15T09:28:06;3.20;99.90
56542;DHT22;42438;53.174;6.730;2023-02-15T09:30:37;3.50;99.90
56542;DHT22;42438;53.174;6.730;2023-02-15T09:33:08;3.70;99.90
56542;DHT22;42438;53.174;6.730;2023-02-15T09:35:39;4.50;99.90
56542;DHT22;42438;53.174;6.730;2023-02-15T09:38:10;3.60;99.90
56542;DHT22;42438;53.174;6.730;2023-02-15T09:40:51;3.70;99.90
56542;DHT22;42438;53.174;6.730;2023-02-15T09:43:37;4.30;99.90
56542;DHT22;42438;53.174;6.730;2023-02-15T09:46:54;4.50;99.90
56542;DHT22;42438;53.174;6.730;2023-02-15T09:55:07;4.40;99.90
56542;DHT22;42438;53.174;6.730;2023-02-15T10:00:28;4.70;99.90
56542;DHT22;42438;53.174;6.730;2023-02-15T10:09:17;5.00;99.90
56542;DHT22;42438;53.174;6.730;2023-02-15T10:15:05;5.50;99.90
56542;DHT22;42438;53.174;6.730;2023-02-15T10:17:48;5.70;99.90
56542;DHT22;42438;53.174;6.730;2023-02-15T10:21:00;5.60;99.90
56542;DHT22;42438;53.174;6.730;2023-02-15T10:29:26;6.30;99.90
56542;DHT22;42438;53.174;6.730;2023-02-15T10:32:16;6.20;99.90
56542;DHT22;42438;53.174;6.730;2023-02-15T10:51:10;7.20;99.90
56542;DHT22;42438;53.174;6.730;2023-02-15T10:59:16;7.20;99.90
56542;DHT22;42438;53.174;6.730;2023-02-15T11:02:02;7.40;99.90
56542;DHT22;42438;53.174;6.730;2023-02-15T11:05:02;7.40;99.90
56542;DHT22;42438;53.174;6.730;2023-02-15T11:12:57;7.90;99.90
56542;DHT22;42438;53.174;6.730;2023-02-15T11:15:33;8.20;99.90
56542;DHT22;42438;53.174;6.730;2023-02-15T11:18:28;8.10;99.90
56542;DHT22;42438;53.174;6.730;2023-02-15T11:23:44;8.80;99.90
56542;DHT22;42438;53.174;6.730;2023-02-15T11:31:54;8.70;99.90
56542;DHT22;42438;53.174;6.730;2023-02-15T11:37:06;8.90;99.90
56542;DHT22;42438;53.174;6.730;2023-02-15T11:39:38;8.70;99.90
56542;DHT22;42438;53.174;6.730;2023-02-15T11:44:52;9.00;99.90
56542;DHT22;42438;53.174;6.730;2023-02-15T11:47:24;9.10;99.90
56542;DHT22;42438;53.174;6.730;2023-02-15T11:49:55;9.30;99.90
56542;DHT22;42438;53.174;6.730;2023-02-15T11:52:26;9.50;99.90
56542;DHT22;42438;53.174;6.730;2023-02-15T11:57:40;9.60;99.90
56542;DHT22;42438;53.174;6.730;2023-02-15T12:00:33;9.80;99.90
56542;DHT22;42438;53.174;6.730;2023-02-15T12:03:27;9.80;99.90
56542;DHT22;42438;53.174;6.730;2023-02-15T12:06:04;10.00;99.90
56542;DHT22;42438;53.174;6.730;2023-02-15T12:08:40;10.20;99.90
56542;DHT22;42438;53.174;6.730;2023-02-15T12:11:17;10.20;99.90
56542;DHT22;42438;53.174;6.730;2023-02-15T12:16:26;10.60;99.90
56542;DHT22;42438;53.174;6.730;2023-02-15T12:18:59;10.50;99.90
56542;DHT22;42438;53.174;6.730;2023-02-15T12:21:39;10.60;99.90
56542;DHT22;42438;53.174;6.730;2023-02-15T12:27:03;10.80;99.90
56542;DHT22;42438;53.174;6.730;2023-02-15T12:29:47;11.00;99.90
56542;DHT22;42438;53.174;6.730;2023-02-15T12:32:24;11.00;99.90
56542;DHT22;42438;53.174;6.730;2023-02-15T12:37:37;11.10;99.90
56542;DHT22;42438;53.174;6.730;2023-02-15T12:40:29;11.20;99.90
56542;DHT22;42438;53.174;6.730;2023-02-15T12:43:00;11.10;99.90
56542;DHT22;42438;53.174;6.730;2023-02-15T12:45:32;11.10;99.90
56542;DHT22;42438;53.174;6.730;2023-02-15T12:50:49;11.20;99.90
56542;DHT22;42438;53.174;6.730;2023-02-15T12:53:32;11.20;99.90
56542;DHT22;42438;53.174;6.730;2023-02-15T12:56:08;11.30;99.90
56542;DHT22;42438;53.174;6.730;2023-02-15T12:58:40;11.30;99.90
56542;DHT22;42438;53.174;6.730;2023-02-15T13:01:15;11.40;99.90
56542;DHT22;42438;53.174;6.730;2023-02-15T13:04:04;11.50;99.90
56542;DHT22;42438;53.174;6.730;2023-02-15T13:06:36;11.60;99.90
56542;DHT22;42438;53.174;6.730;2023-02-15T13:09:20;11.70;99.90
56542;DHT22;42438;53.174;6.730;2023-02-15T13:11:52;11.70;99.90
56542;DHT22;42438;53.174;6.730;2023-02-15T13:14:32;11.60;99.90
56542;DHT22;42438;53.174;6.730;2023-02-15T13:17:04;11.50;99.90
56542;DHT22;42438;53.174;6.730;2023-02-15T13:19:44;11.50;99.90
56542;DHT22;42438;53.174;6.730;2023-02-15T13:22:31;11.40;99.90
56542;DHT22;42438;53.174;6.730;2023-02-15T13:27:50;11.20;99.90
56542;DHT22;42438;53.174;6.730;2023-02-15T13:30:44;11.20;99.90
56542;DHT22;42438;53.174;6.730;2023-02-15T13:33:19;11.10;99.90
56542;DHT22;42438;53.174;6.730;2023-02-15T13:36:12;11.10;99.90
56542;DHT22;42438;53.174;6.730;2023-02-15T13:47:17;11.30;99.90
56542;DHT22;42438;53.174;6.730;2023-02-15T13:52:44;11.30;99.90
56542;DHT22;42438;53.174;6.730;2023-02-15T14:15:00;11.30;99.90
56542;DHT22;42438;53.174;6.730;2023-02-15T14:17:52;11.30;99.90
56542;DHT22;42438;53.174;6.730;2023-02-15T14:26:06;11.30;99.90
56542;DHT22;42438;53.174;6.730;2023-02-15T14:31:28;11.30;99.90
56542;DHT22;42438;53.174;6.730;2023-02-15T14:33:59;11.30;99.90
56542;DHT22;42438;53.174;6.730;2023-02-15T14:36:30;11.20;99.90
56542;DHT22;42438;53.174;6.730;2023-02-15T14:45:06;11.10;99.90
56542;DHT22;42438;53.174;6.730;2023-02-15T14:48:11;11.10;99.90
56542;DHT22;42438;53.174;6.730;2023-02-15T14:50:46;11.10;99.90
56542;DHT22;42438;53.174;6.730;2023-02-15T14:56:21;11.00;99.90
56542;DHT22;42438;53.174;6.730;2023-02-15T15:01:32;10.80;99.90
56542;DHT22;42438;53.174;6.730;2023-02-15T15:06:41;10.70;99.90
56542;DHT22;42438;53.174;6.730;2023-02-15T15:09:20;10.60;99.90
56542;DHT22;42438;53.174;6.730;2023-02-15T15:11:55;10.50;99.90
56542;DHT22;42438;53.174;6.730;2023-02-15T15:14:43;10.50;99.90
56542;DHT22;42438;53.174;6.730;2023-02-15T15:26:30;10.20;99.90
56542;DHT22;42438;53.174;6.730;2023-02-15T15:45:51;9.50;99.90
56542;DHT22;42438;53.174;6.730;2023-02-15T15:48:36;9.50;99.90
56542;DHT22;42438;53.174;6.730;2023-02-15T15:51:20;9.50;99.90
56542;DHT22;42438;53.174;6.730;2023-02-15T15:53:53;9.40;99.90
56542;DHT22;42438;53.174;6.730;2023-02-15T15:56:27;9.30;99.90
56542;DHT22;42438;53.174;6.730;2023-02-15T15:59:02;9.30;99.90
56542;DHT22;42438;53.174;6.730;2023-02-15T16:01:42;9.30;99.90
56542;DHT22;42438;53.174;6.730;2023-02-15T16:04:27;9.20;99.90
56542;DHT22;42438;53.174;6.730;2023-02-15T16:07:23;9.60;99.90
56542;DHT22;42438;53.174;6.730;2023-02-15T16:09:55;9.10;99.90
56542;DHT22;42438;53.174;6.730;2023-02-15T16:12:33;9.10;99.90
56542;DHT22;42438;53.174;6.730;2023-02-15T16:15:14;8.90;99.90
56542;DHT22;42438;53.174;6.730;2023-02-15T16:17:48;8.90;99.90
56542;DHT22;42438;53.174;6.730;2023-02-15T16:20:29;8.80;99.90
56542;DHT22;42438;53.174;6.730;2023-02-15T16:28:54;8.60;99.90
56542;DHT22;42438;53.174;6.730;2023-02-15T16:31:25;8.40;99.90
56542;DHT22;42438;53.174;6.730;2023-02-15T16:33:55;8.40;99.90
56542;DHT22;42438;53.174;6.730;2023-02-15T16:36:28;8.30;99.90
56542;DHT22;42438;53.174;6.730;2023-02-15T16:41:29;8.20;99.90
56542;DHT22;42438;53.174;6.730;2023-02-15T16:44:06;8.10;99.90
56542;DHT22;42438;53.174;6.730;2023-02-15T16:46:40;7.90;99.90
56542;DHT22;42438;53.174;6.730;2023-02-15T16:49:22;7.90;99.90
56542;DHT22;42438;53.174;6.730;2023-02-15T16:52:02;7.80;99.90
56542;DHT22;42438;53.174;6.730;2023-02-15T16:54:33;7.80;99.90
56542;DHT22;42438;53.174;6.730;2023-02-15T16:57:05;7.70;99.90
56542;DHT22;42438;53.174;6.730;2023-02-15T16:59:49;8.20;99.90
56542;DHT22;42438;53.174;6.730;2023-02-15T17:02:38;7.50;99.90
56542;DHT22;42438;53.174;6.730;2023-02-15T17:07:51;7.50;99.90
56542;DHT22;42438;53.174;6.730;2023-02-15T17:10:37;7.40;99.90
56542;DHT22;42438;53.174;6.730;2023-02-15T17:13:16;7.50;99.90
56542;DHT22;42438;53.174;6.730;2023-02-15T17:18:39;7.30;99.90
56542;DHT22;42438;53.174;6.730;2023-02-15T17:21:19;7.40;99.90
56542;DHT22;42438;53.174;6.730;2023-02-15T17:23:51;7.50;99.90
56542;DHT22;42438;53.174;6.730;2023-02-15T17:26:30;7.20;99.90
56542;DHT22;42438;53.174;6.730;2023-02-15T17:31:48;7.10;99.90
56542;DHT22;42438;53.174;6.730;2023-02-15T17:34:50;7.10;99.90
56542;DHT22;42438;53.174;6.730;2023-02-15T17:37:47;7.10;99.90
56542;DHT22;42438;53.174;6.730;2023-02-15T17:40:22;7.00;99.90
56542;DHT22;42438;53.174;6.730;2023-02-15T17:42:53;6.90;99.90
56542;DHT22;42438;53.174;6.730;2023-02-15T17:45:30;6.80;99.90
56542;DHT22;42438;53.174;6.730;2023-02-15T17:48:03;7.00;99.90
56542;DHT22;42438;53.174;6.730;2023-02-15T17:50:35;6.70;99.90
56542;DHT22;42438;53.174;6.730;2023-02-15T17:53:08;7.30;99.90
56542;DHT22;42438;53.174;6.730;2023-02-15T17:55:39;6.90;99.90
56542;DHT22;42438;53.174;6.730;2023-02-15T17:58:13;7.10;99.90
56542;DHT22;42438;53.174;6.730;2023-02-15T18:00:48;6.90;99.90
56542;DHT22;42438;53.174;6.730;2023-02-15T18:03:44;6.40;99.90
56542;DHT22;42438;53.174;6.730;2023-02-15T18:06:36;6.30;99.90
56542;DHT22;42438;53.174;6.730;2023-02-15T18:09:26;6.30;99.90
56542;DHT22;42438;53.174;6.730;2023-02-15T18:14:49;6.30;99.90
56542;DHT22;42438;53.174;6.730;2023-02-15T18:17:42;6.30;99.90
56542;DHT22;42438;53.174;6.730;2023-02-15T18:20:26;6.60;99.90
56542;DHT22;42438;53.174;6.730;2023-02-15T18:22:58;6.40;99.90
56542;DHT22;42438;53.174;6.730;2023-02-15T18:25:28;6.30;99.90
56542;DHT22;42438;53.174;6.730;2023-02-15T18:27:59;6.30;99.90
56542;DHT22;42438;53.174;6.730;2023-02-15T18:30:30;6.40;99.90
56542;DHT22;42438;53.174;6.730;2023-02-15T18:33:01;6.40;99.90
56542;DHT22;42438;53.174;6.730;2023-02-15T18:35:32;6.30;99.90
56542;DHT22;42438;53.174;6.730;2023-02-15T18:38:03;6.30;99.90
56542;DHT22;42438;53.174;6.730;2023-02-15T18:40:33;6.40;99.90
56542;DHT22;42438;53.174;6.730;2023-02-15T18:43:04;6.20;99.90
56542;DHT22;42438;53.174;6.730;2023-02-15T18:45:34;6.30;99.90
56542;DHT22;42438;53.174;6.730;2023-02-15T18:48:06;6.30;99.90
56542;DHT22;42438;53.174;6.730;2023-02-15T18:50:39;6.20;99.90
56542;DHT22;42438;53.174;6.730;2023-02-15T18:53:19;6.20;99.90
56542;DHT22;42438;53.174;6.730;2023-02-15T18:55:50;6.10;99.90
56542;DHT22;42438;53.174;6.730;2023-02-15T18:58:21;6.20;99.90
56542;DHT22;42438;53.174;6.730;2023-02-15T19:00:54;6.20;99.90
56542;DHT22;42438;53.174;6.730;2023-02-15T19:03:24;6.00;99.90
56542;DHT22;42438;53.174;6.730;2023-02-15T19:05:56;6.10;99.90
56542;DHT22;42438;53.174;6.730;2023-02-15T19:08:27;6.20;99.90
56542;DHT22;42438;53.174;6.730;2023-02-15T19:10:58;6.20;99.90
56542;DHT22;42438;53.174;6.730;2023-02-15T19:13:29;6.00;99.90
56542;DHT22;42438;53.174;6.730;2023-02-15T19:16:00;6.10;99.90
56542;DHT22;42438;53.174;6.730;2023-02-15T19:18:30;6.10;99.90
56542;DHT22;42438;53.174;6.730;2023-02-15T19:21:01;6.10;99.90
56542;DHT22;42438;53.174;6.730;2023-02-15T19:23:31;6.10;99.90
56542;DHT22;42438;53.174;6.730;2023-02-15T19:26:02;5.90;99.90
56542;DHT22;42438;53.174;6.730;2023-02-15T19:28:35;6.00;99.90
56542;DHT22;42438;53.174;6.730;2023-02-15T19:31:10;6.00;99.90
56542;DHT22;42438;53.174;6.730;2023-02-15T19:33:40;5.90;99.90
56542;DHT22;42438;53.174;6.730;2023-02-15T19:36:15;6.40;99.90
56542;DHT22;42438;53.174;6.730;2023-02-15T19:38:49;6.00;99.90
56542;DHT22;42438;53.174;6.730;2023-02-15T19:41:29;5.80;99.90
56542;DHT22;42438;53.174;6.730;2023-02-15T19:44:01;6.00;99.90
56542;DHT22;42438;53.174;6.730;2023-02-15T19:46:31;5.80;99.90
56542;DHT22;42438;53.174;6.730;2023-02-15T19:49:03;5.90;99.90
56542;DHT22;42438;53.174;6.730;2023-02-15T19:51:34;6.20;99.90
56542;DHT22;42438;53.174;6.730;2023-02-15T19:54:35;5.80;99.90
56542;DHT22;42438;53.174;6.730;2023-02-15T19:57:10;5.90;99.90
56542;DHT22;42438;53.174;6.730;2023-02-15T19:59:41;6.10;99.90
56542;DHT22;42438;53.174;6.730;2023-02-15T20:02:13;5.90;99.90